sensor_id;sensor_type;location;lat;lon;timestamp;P1;durP1;ratioP1;P2;durP2;ratioP2
17886;SDS011;9069;52.044;7.472;2022-10-31T00:01:18;15.65;;;8.10;;
17886;SDS011;9069;52.044;7.472;2022-10-31T00:03:56;14.50;;;7.80;;
17886;SDS011;9069;52.044;7.472;2022-10-31T00:06:23;13.45;;;7.78;;
17886;SDS011;9069;52.044;7.472;2022-10-31T00:09:00;15.77;;;7.90;;
17886;SDS011;9069;52.044;7.472;2022-10-31T00:14:23;18.35;;;8.32;;
17886;SDS011;9069;52.044;7.472;2022-10-31T00:16:49;15.45;;;7.18;;
17886;SDS011;9069;52.044;7.472;2022-10-31T00:19:16;17.80;;;7.22;;
17886;SDS011;9069;52.044;7.472;2022-10-31T00:21:43;14.43;;;7.82;;
17886;SDS011;9069;52.044;7.472;2022-10-31T00:24:09;15.45;;;8.10;;
17886;SDS011;9069;52.044;7.472;2022-10-31T00:26:37;14.10;;;7.72;;
17886;SDS011;9069;52.044;7.472;2022-10-31T00:29:03;14.35;;;7.03;;
17886;SDS011;9069;52.044;7.472;2022-10-31T00:31:30;12.95;;;7.30;;
17886;SDS011;9069;52.044;7.472;2022-10-31T00:33:58;14.75;;;7.50;;
17886;SDS011;9069;52.044;7.472;2022-10-31T00:36:25;15.45;;;7.43;;
17886;SDS011;9069;52.044;7.472;2022-10-31T00:38:52;14.93;;;8.15;;
17886;SDS011;9069;52.044;7.472;2022-10-31T00:41:20;10.40;;;7.22;;
17886;SDS011;9069;52.044;7.472;2022-10-31T00:43:47;14.60;;;7.32;;
17886;SDS011;9069;52.044;7.472;2022-10-31T00:46:14;14.02;;;7.47;;
17886;SDS011;9069;52.044;7.472;2022-10-31T00:48:40;11.52;;;6.57;;
17886;SDS011;9069;52.044;7.472;2022-10-31T00:51:08;10.40;;;6.43;;
17886;SDS011;9069;52.044;7.472;2022-10-31T00:53:35;13.82;;;7.82;;
17886;SDS011;9069;52.044;7.472;2022-10-31T00:56:01;13.68;;;7.35;;
17886;SDS011;9069;52.044;7.472;2022-10-31T00:58:28;12.35;;;7.32;;
17886;SDS011;9069;52.044;7.472;2022-10-31T01:00:55;12.60;;;7.57;;
17886;SDS011;9069;52.044;7.472;2022-10-31T01:03:26;11.10;;;6.47;;
17886;SDS011;9069;52.044;7.472;2022-10-31T01:05:59;13.48;;;7.50;;
17886;SDS011;9069;52.044;7.472;2022-10-31T01:08:31;12.15;;;6.72;;
17886;SDS011;9069;52.044;7.472;2022-10-31T01:11:18;12.80;;;7.60;;
17886;SDS011;9069;52.044;7.472;2022-10-31T01:13:46;15.57;;;7.38;;
17886;SDS011;9069;52.044;7.472;2022-10-31T01:16:14;14.20;;;7.35;;
17886;SDS011;9069;52.044;7.472;2022-10-31T01:18:42;13.57;;;7.25;;
17886;SDS011;9069;52.044;7.472;2022-10-31T01:21:13;11.95;;;7.28;;
17886;SDS011;9069;52.044;7.472;2022-10-31T01:23:42;12.25;;;7.53;;
17886;SDS011;9069;52.044;7.472;2022-10-31T01:26:16;12.20;;;7.15;;
17886;SDS011;9069;52.044;7.472;2022-10-31T01:28:54;12.63;;;6.88;;
17886;SDS011;9069;52.044;7.472;2022-10-31T01:31:23;13.35;;;7.43;;
17886;SDS011;9069;52.044;7.472;2022-10-31T01:33:51;13.35;;;7.53;;
17886;SDS011;9069;52.044;7.472;2022-10-31T01:36:22;13.98;;;7.90;;
17886;SDS011;9069;52.044;7.472;2022-10-31T01:38:52;17.40;;;8.10;;
17886;SDS011;9069;52.044;7.472;2022-10-31T01:41:22;12.38;;;7.63;;
17886;SDS011;9069;52.044;7.472;2022-10-31T01:46:39;11.57;;;7.85;;
17886;SDS011;9069;52.044;7.472;2022-10-31T01:49:11;14.60;;;8.05;;
17886;SDS011;9069;52.044;7.472;2022-10-31T01:51:49;14.55;;;8.77;;
17886;SDS011;9069;52.044;7.472;2022-10-31T01:54:21;13.98;;;7.70;;
17886;SDS011;9069;52.044;7.472;2022-10-31T01:56:52;17.23;;;8.23;;
17886;SDS011;9069;52.044;7.472;2022-10-31T01:59:22;16.48;;;7.82;;
17886;SDS011;9069;52.044;7.472;2022-10-31T02:01:54;15.07;;;8.18;;
17886;SDS011;9069;52.044;7.472;2022-10-31T02:04:21;17.88;;;8.45;;
17886;SDS011;9069;52.044;7.472;2022-10-31T02:06:51;11.07;;;7.95;;
17886;SDS011;9069;52.044;7.472;2022-10-31T02:09:22;10.73;;;7.15;;
17886;SDS011;9069;52.044;7.472;2022-10-31T02:11:51;14.40;;;7.70;;
17886;SDS011;9069;52.044;7.472;2022-10-31T02:14:23;14.75;;;7.75;;
17886;SDS011;9069;52.044;7.472;2022-10-31T02:16:53;13.77;;;8.43;;
17886;SDS011;9069;52.044;7.472;2022-10-31T02:19:30;14.07;;;7.95;;
17886;SDS011;9069;52.044;7.472;2022-10-31T02:22:13;13.35;;;7.55;;
17886;SDS011;9069;52.044;7.472;2022-10-31T02:25:19;11.18;;;7.97;;
17886;SDS011;9069;52.044;7.472;2022-10-31T02:34:19;14.88;;;7.95;;
17886;SDS011;9069;52.044;7.472;2022-10-31T02:37:02;13.20;;;8.23;;
17886;SDS011;9069;52.044;7.472;2022-10-31T02:39:53;15.88;;;7.95;;
17886;SDS011;9069;52.044;7.472;2022-10-31T02:42:51;11.18;;;7.80;;
17886;SDS011;9069;52.044;7.472;2022-10-31T02:45:56;13.10;;;7.72;;
17886;SDS011;9069;52.044;7.472;2022-10-31T02:48:30;14.25;;;7.82;;
17886;SDS011;9069;52.044;7.472;2022-10-31T02:51:01;14.00;;;7.18;;
17886;SDS011;9069;52.044;7.472;2022-10-31T02:53:33;12.57;;;8.32;;
17886;SDS011;9069;52.044;7.472;2022-10-31T02:56:12;14.80;;;8.60;;
17886;SDS011;9069;52.044;7.472;2022-10-31T02:58:51;14.95;;;7.88;;
17886;SDS011;9069;52.044;7.472;2022-10-31T03:07:52;14.02;;;9.23;;
17886;SDS011;9069;52.044;7.472;2022-10-31T03:10:27;16.65;;;8.55;;
17886;SDS011;9069;52.044;7.472;2022-10-31T03:16:04;14.93;;;9.18;;
17886;SDS011;9069;52.044;7.472;2022-10-31T03:24:12;13.38;;;8.13;;
17886;SDS011;9069;52.044;7.472;2022-10-31T03:26:42;18.15;;;9.75;;
17886;SDS011;9069;52.044;7.472;2022-10-31T03:29:14;17.70;;;9.90;;
17886;SDS011;9069;52.044;7.472;2022-10-31T03:31:47;16.55;;;10.25;;
17886;SDS011;9069;52.044;7.472;2022-10-31T03:34:36;15.15;;;9.63;;
17886;SDS011;9069;52.044;7.472;2022-10-31T03:37:07;20.20;;;9.73;;
17886;SDS011;9069;52.044;7.472;2022-10-31T03:39:37;14.02;;;8.70;;
17886;SDS011;9069;52.044;7.472;2022-10-31T03:42:11;14.10;;;9.07;;
17886;SDS011;9069;52.044;7.472;2022-10-31T03:44:41;20.38;;;9.80;;
17886;SDS011;9069;52.044;7.472;2022-10-31T03:47:11;20.80;;;9.55;;
17886;SDS011;9069;52.044;7.472;2022-10-31T03:49:38;15.70;;;9.13;;
17886;SDS011;9069;52.044;7.472;2022-10-31T03:52:15;20.05;;;8.90;;
17886;SDS011;9069;52.044;7.472;2022-10-31T03:54:58;17.48;;;9.25;;
17886;SDS011;9069;52.044;7.472;2022-10-31T03:57:39;14.77;;;9.35;;
17886;SDS011;9069;52.044;7.472;2022-10-31T04:00:10;15.07;;;9.20;;
17886;SDS011;9069;52.044;7.472;2022-10-31T04:02:47;16.42;;;10.07;;
17886;SDS011;9069;52.044;7.472;2022-10-31T04:05:22;16.30;;;8.82;;
17886;SDS011;9069;52.044;7.472;2022-10-31T04:07:51;14.00;;;8.88;;
17886;SDS011;9069;52.044;7.472;2022-10-31T04:10:21;16.88;;;8.98;;
17886;SDS011;9069;52.044;7.472;2022-10-31T04:13:00;14.93;;;8.50;;
17886;SDS011;9069;52.044;7.472;2022-10-31T04:15:42;15.77;;;9.20;;
17886;SDS011;9069;52.044;7.472;2022-10-31T04:18:11;17.63;;;9.45;;
17886;SDS011;9069;52.044;7.472;2022-10-31T04:20:39;17.48;;;9.32;;
17886;SDS011;9069;52.044;7.472;2022-10-31T04:23:13;16.77;;;9.25;;
17886;SDS011;9069;52.044;7.472;2022-10-31T04:25:47;13.75;;;9.07;;
17886;SDS011;9069;52.044;7.472;2022-10-31T04:28:15;16.98;;;8.85;;
17886;SDS011;9069;52.044;7.472;2022-10-31T04:30:42;15.95;;;9.55;;
17886;SDS011;9069;52.044;7.472;2022-10-31T04:33:09;16.05;;;9.60;;
17886;SDS011;9069;52.044;7.472;2022-10-31T04:35:37;19.10;;;9.60;;
17886;SDS011;9069;52.044;7.472;2022-10-31T04:38:04;15.20;;;9.30;;
17886;SDS011;9069;52.044;7.472;2022-10-31T04:40:30;15.48;;;8.82;;
17886;SDS011;9069;52.044;7.472;2022-10-31T04:43:35;16.90;;;9.00;;
17886;SDS011;9069;52.044;7.472;2022-10-31T04:46:02;13.80;;;8.65;;
17886;SDS011;9069;52.044;7.472;2022-10-31T04:48:29;14.95;;;8.57;;
17886;SDS011;9069;52.044;7.472;2022-10-31T04:51:00;14.10;;;8.68;;
17886;SDS011;9069;52.044;7.472;2022-10-31T04:53:27;17.45;;;9.27;;
17886;SDS011;9069;52.044;7.472;2022-10-31T04:56:17;15.82;;;9.60;;
17886;SDS011;9069;52.044;7.472;2022-10-31T04:58:50;16.05;;;8.82;;
17886;SDS011;9069;52.044;7.472;2022-10-31T05:01:18;17.98;;;9.18;;
17886;SDS011;9069;52.044;7.472;2022-10-31T05:03:47;16.83;;;9.45;;
17886;SDS011;9069;52.044;7.472;2022-10-31T05:06:15;13.38;;;8.32;;
17886;SDS011;9069;52.044;7.472;2022-10-31T05:08:42;15.43;;;8.35;;
17886;SDS011;9069;52.044;7.472;2022-10-31T05:11:10;12.20;;;8.10;;
17886;SDS011;9069;52.044;7.472;2022-10-31T05:13:38;13.98;;;8.73;;
17886;SDS011;9069;52.044;7.472;2022-10-31T05:16:24;12.52;;;8.23;;
17886;SDS011;9069;52.044;7.472;2022-10-31T05:18:54;14.18;;;9.18;;
17886;SDS011;9069;52.044;7.472;2022-10-31T05:21:59;13.77;;;7.68;;
17886;SDS011;9069;52.044;7.472;2022-10-31T05:24:25;16.75;;;8.35;;
17886;SDS011;9069;52.044;7.472;2022-10-31T05:26:52;12.95;;;8.25;;
17886;SDS011;9069;52.044;7.472;2022-10-31T05:29:19;15.77;;;8.32;;
17886;SDS011;9069;52.044;7.472;2022-10-31T05:31:46;14.00;;;8.57;;
17886;SDS011;9069;52.044;7.472;2022-10-31T05:34:33;13.35;;;7.68;;
17886;SDS011;9069;52.044;7.472;2022-10-31T05:37:14;13.43;;;7.45;;
17886;SDS011;9069;52.044;7.472;2022-10-31T05:39:41;14.00;;;7.47;;
17886;SDS011;9069;52.044;7.472;2022-10-31T05:42:12;13.20;;;7.78;;
17886;SDS011;9069;52.044;7.472;2022-10-31T05:44:40;14.60;;;7.22;;
17886;SDS011;9069;52.044;7.472;2022-10-31T05:47:15;9.00;;;6.47;;
17886;SDS011;9069;52.044;7.472;2022-10-31T05:50:00;12.30;;;7.15;;
17886;SDS011;9069;52.044;7.472;2022-10-31T05:52:33;11.68;;;7.32;;
17886;SDS011;9069;52.044;7.472;2022-10-31T05:55:07;12.98;;;6.72;;
17886;SDS011;9069;52.044;7.472;2022-10-31T05:57:35;11.75;;;7.30;;
17886;SDS011;9069;52.044;7.472;2022-10-31T06:00:03;10.23;;;6.93;;
17886;SDS011;9069;52.044;7.472;2022-10-31T06:02:33;14.48;;;7.40;;
17886;SDS011;9069;52.044;7.472;2022-10-31T06:05:18;12.55;;;6.93;;
17886;SDS011;9069;52.044;7.472;2022-10-31T06:07:45;11.18;;;6.90;;
17886;SDS011;9069;52.044;7.472;2022-10-31T06:10:12;10.10;;;6.78;;
17886;SDS011;9069;52.044;7.472;2022-10-31T06:12:39;13.75;;;6.95;;
17886;SDS011;9069;52.044;7.472;2022-10-31T06:15:20;13.98;;;6.93;;
17886;SDS011;9069;52.044;7.472;2022-10-31T06:17:57;11.90;;;6.72;;
17886;SDS011;9069;52.044;7.472;2022-10-31T06:20:26;12.23;;;6.72;;
17886;SDS011;9069;52.044;7.472;2022-10-31T06:23:00;12.80;;;6.82;;
17886;SDS011;9069;52.044;7.472;2022-10-31T06:25:30;11.50;;;7.07;;
17886;SDS011;9069;52.044;7.472;2022-10-31T06:27:57;11.65;;;7.50;;
17886;SDS011;9069;52.044;7.472;2022-10-31T06:30:32;15.48;;;7.07;;
17886;SDS011;9069;52.044;7.472;2022-10-31T06:33:03;13.00;;;7.10;;
17886;SDS011;9069;52.044;7.472;2022-10-31T06:35:34;14.85;;;7.65;;
17886;SDS011;9069;52.044;7.472;2022-10-31T06:38:00;11.98;;;6.40;;
17886;SDS011;9069;52.044;7.472;2022-10-31T06:40:40;14.98;;;7.53;;
17886;SDS011;9069;52.044;7.472;2022-10-31T06:43:20;19.42;;;8.65;;
17886;SDS011;9069;52.044;7.472;2022-10-31T06:45:48;13.57;;;8.50;;
17886;SDS011;9069;52.044;7.472;2022-10-31T06:48:30;12.70;;;8.05;;
17886;SDS011;9069;52.044;7.472;2022-10-31T06:51:27;15.02;;;8.68;;
17886;SDS011;9069;52.044;7.472;2022-10-31T06:53:53;15.48;;;7.75;;
17886;SDS011;9069;52.044;7.472;2022-10-31T06:56:21;15.55;;;8.57;;
17886;SDS011;9069;52.044;7.472;2022-10-31T06:58:53;16.90;;;8.20;;
17886;SDS011;9069;52.044;7.472;2022-10-31T07:01:40;18.73;;;9.52;;
17886;SDS011;9069;52.044;7.472;2022-10-31T07:04:08;12.38;;;8.63;;
17886;SDS011;9069;52.044;7.472;2022-10-31T07:06:36;12.98;;;8.80;;
17886;SDS011;9069;52.044;7.472;2022-10-31T07:09:03;17.30;;;9.07;;
17886;SDS011;9069;52.044;7.472;2022-10-31T07:11:30;17.73;;;10.30;;
17886;SDS011;9069;52.044;7.472;2022-10-31T07:13:58;18.48;;;9.70;;
17886;SDS011;9069;52.044;7.472;2022-10-31T07:16:25;16.95;;;9.98;;
17886;SDS011;9069;52.044;7.472;2022-10-31T07:18:52;13.63;;;8.63;;
17886;SDS011;9069;52.044;7.472;2022-10-31T07:21:20;16.88;;;9.93;;
17886;SDS011;9069;52.044;7.472;2022-10-31T07:23:47;14.88;;;9.10;;
17886;SDS011;9069;52.044;7.472;2022-10-31T07:26:40;17.10;;;10.65;;
17886;SDS011;9069;52.044;7.472;2022-10-31T07:29:08;16.77;;;9.57;;
17886;SDS011;9069;52.044;7.472;2022-10-31T07:31:36;17.40;;;10.48;;
17886;SDS011;9069;52.044;7.472;2022-10-31T07:34:10;18.08;;;9.43;;
17886;SDS011;9069;52.044;7.472;2022-10-31T07:36:55;18.58;;;9.93;;
17886;SDS011;9069;52.044;7.472;2022-10-31T07:39:22;18.38;;;10.32;;
17886;SDS011;9069;52.044;7.472;2022-10-31T07:41:48;18.70;;;8.93;;
17886;SDS011;9069;52.044;7.472;2022-10-31T07:44:18;16.83;;;9.60;;
17886;SDS011;9069;52.044;7.472;2022-10-31T07:47:10;19.73;;;9.07;;
17886;SDS011;9069;52.044;7.472;2022-10-31T07:49:55;19.80;;;8.98;;
17886;SDS011;9069;52.044;7.472;2022-10-31T07:52:41;16.02;;;8.88;;
17886;SDS011;9069;52.044;7.472;2022-10-31T07:55:37;18.33;;;9.43;;
17886;SDS011;9069;52.044;7.472;2022-10-31T07:58:06;16.63;;;9.10;;
17886;SDS011;9069;52.044;7.472;2022-10-31T08:00:37;13.70;;;8.85;;
17886;SDS011;9069;52.044;7.472;2022-10-31T08:03:08;15.13;;;9.02;;
17886;SDS011;9069;52.044;7.472;2022-10-31T08:06:14;15.60;;;6.88;;
17886;SDS011;9069;52.044;7.472;2022-10-31T08:09:04;13.13;;;7.03;;
17886;SDS011;9069;52.044;7.472;2022-10-31T08:11:31;10.48;;;7.55;;
17886;SDS011;9069;52.044;7.472;2022-10-31T08:13:59;10.77;;;7.05;;
17886;SDS011;9069;52.044;7.472;2022-10-31T08:16:26;10.48;;;7.28;;
17886;SDS011;9069;52.044;7.472;2022-10-31T08:18:59;10.70;;;7.05;;
17886;SDS011;9069;52.044;7.472;2022-10-31T08:21:28;9.23;;;6.03;;
17886;SDS011;9069;52.044;7.472;2022-10-31T08:23:56;10.10;;;6.50;;
17886;SDS011;9069;52.044;7.472;2022-10-31T08:26:23;9.02;;;6.75;;
17886;SDS011;9069;52.044;7.472;2022-10-31T08:28:52;8.15;;;6.43;;
17886;SDS011;9069;52.044;7.472;2022-10-31T08:31:21;9.80;;;6.20;;
17886;SDS011;9069;52.044;7.472;2022-10-31T08:33:48;10.30;;;5.97;;
17886;SDS011;9069;52.044;7.472;2022-10-31T08:36:19;11.07;;;7.18;;
17886;SDS011;9069;52.044;7.472;2022-10-31T08:39:07;8.38;;;5.75;;
17886;SDS011;9069;52.044;7.472;2022-10-31T08:41:33;8.65;;;6.38;;
17886;SDS011;9069;52.044;7.472;2022-10-31T08:44:01;10.25;;;5.60;;
17886;SDS011;9069;52.044;7.472;2022-10-31T08:46:28;10.00;;;6.40;;
17886;SDS011;9069;52.044;7.472;2022-10-31T08:48:55;7.47;;;6.10;;
17886;SDS011;9069;52.044;7.472;2022-10-31T08:51:22;10.95;;;6.20;;
17886;SDS011;9069;52.044;7.472;2022-10-31T08:53:52;11.63;;;6.07;;
17886;SDS011;9069;52.044;7.472;2022-10-31T08:56:24;8.35;;;6.18;;
17886;SDS011;9069;52.044;7.472;2022-10-31T08:58:52;10.65;;;6.38;;
17886;SDS011;9069;52.044;7.472;2022-10-31T09:01:29;8.40;;;6.28;;
17886;SDS011;9069;52.044;7.472;2022-10-31T09:03:56;12.30;;;6.57;;
17886;SDS011;9069;52.044;7.472;2022-10-31T09:06:24;9.60;;;7.10;;
17886;SDS011;9069;52.044;7.472;2022-10-31T09:08:52;12.18;;;7.25;;
17886;SDS011;9069;52.044;7.472;2022-10-31T09:11:24;13.32;;;8.27;;
17886;SDS011;9069;52.044;7.472;2022-10-31T09:14:09;10.25;;;7.75;;
17886;SDS011;9069;52.044;7.472;2022-10-31T09:16:38;12.07;;;8.10;;
17886;SDS011;9069;52.044;7.472;2022-10-31T09:19:11;12.40;;;8.45;;
17886;SDS011;9069;52.044;7.472;2022-10-31T09:21:38;12.18;;;8.43;;
17886;SDS011;9069;52.044;7.472;2022-10-31T09:24:05;14.82;;;9.35;;
17886;SDS011;9069;52.044;7.472;2022-10-31T09:26:32;13.45;;;8.82;;
17886;SDS011;9069;52.044;7.472;2022-10-31T09:29:06;14.80;;;8.75;;
17886;SDS011;9069;52.044;7.472;2022-10-31T09:31:36;10.65;;;8.48;;
17886;SDS011;9069;52.044;7.472;2022-10-31T09:34:39;11.40;;;8.50;;
17886;SDS011;9069;52.044;7.472;2022-10-31T09:37:09;13.30;;;9.25;;
17886;SDS011;9069;52.044;7.472;2022-10-31T09:39:36;10.98;;;8.55;;
17886;SDS011;9069;52.044;7.472;2022-10-31T09:42:15;13.25;;;8.90;;
17886;SDS011;9069;52.044;7.472;2022-10-31T09:45:03;14.73;;;8.85;;
17886;SDS011;9069;52.044;7.472;2022-10-31T09:50:41;13.57;;;9.05;;
17886;SDS011;9069;52.044;7.472;2022-10-31T09:53:34;11.48;;;8.55;;
17886;SDS011;9069;52.044;7.472;2022-10-31T09:56:05;17.40;;;9.35;;
17886;SDS011;9069;52.044;7.472;2022-10-31T09:58:44;12.65;;;8.57;;
17886;SDS011;9069;52.044;7.472;2022-10-31T10:01:23;12.95;;;9.00;;
17886;SDS011;9069;52.044;7.472;2022-10-31T10:03:53;14.93;;;9.50;;
17886;SDS011;9069;52.044;7.472;2022-10-31T10:06:51;15.35;;;9.65;;
17886;SDS011;9069;52.044;7.472;2022-10-31T10:09:37;18.40;;;9.45;;
17886;SDS011;9069;52.044;7.472;2022-10-31T10:15:34;14.75;;;10.05;;
17886;SDS011;9069;52.044;7.472;2022-10-31T10:23:35;18.58;;;10.23;;
17886;SDS011;9069;52.044;7.472;2022-10-31T10:26:20;21.58;;;11.13;;
17886;SDS011;9069;52.044;7.472;2022-10-31T10:28:51;15.65;;;11.25;;
17886;SDS011;9069;52.044;7.472;2022-10-31T10:31:24;16.13;;;11.18;;
17886;SDS011;9069;52.044;7.472;2022-10-31T10:34:02;16.80;;;11.35;;
17886;SDS011;9069;52.044;7.472;2022-10-31T10:36:44;20.17;;;11.55;;
17886;SDS011;9069;52.044;7.472;2022-10-31T10:39:23;19.65;;;12.68;;
17886;SDS011;9069;52.044;7.472;2022-10-31T10:41:55;16.20;;;11.45;;
17886;SDS011;9069;52.044;7.472;2022-10-31T10:44:44;19.63;;;11.50;;
17886;SDS011;9069;52.044;7.472;2022-10-31T10:47:47;18.88;;;11.48;;
17886;SDS011;9069;52.044;7.472;2022-10-31T10:50:22;20.55;;;11.50;;
17886;SDS011;9069;52.044;7.472;2022-10-31T10:53:18;23.45;;;11.60;;
17886;SDS011;9069;52.044;7.472;2022-10-31T10:58:31;21.73;;;11.60;;
17886;SDS011;9069;52.044;7.472;2022-10-31T11:00:57;18.23;;;11.48;;
17886;SDS011;9069;52.044;7.472;2022-10-31T11:03:24;20.95;;;11.95;;
17886;SDS011;9069;52.044;7.472;2022-10-31T11:05:55;20.77;;;12.27;;
17886;SDS011;9069;52.044;7.472;2022-10-31T11:08:25;21.90;;;12.43;;
17886;SDS011;9069;52.044;7.472;2022-10-31T11:10:56;24.23;;;12.40;;
17886;SDS011;9069;52.044;7.472;2022-10-31T11:13:24;17.55;;;11.57;;
17886;SDS011;9069;52.044;7.472;2022-10-31T11:15:53;19.27;;;11.57;;
17886;SDS011;9069;52.044;7.472;2022-10-31T11:18:22;19.63;;;12.20;;
17886;SDS011;9069;52.044;7.472;2022-10-31T11:20:53;22.63;;;12.65;;
17886;SDS011;9069;52.044;7.472;2022-10-31T11:23:22;20.08;;;12.88;;
17886;SDS011;9069;52.044;7.472;2022-10-31T11:25:51;19.35;;;12.13;;
17886;SDS011;9069;52.044;7.472;2022-10-31T11:28:22;21.83;;;12.35;;
17886;SDS011;9069;52.044;7.472;2022-10-31T11:30:51;24.00;;;12.27;;
17886;SDS011;9069;52.044;7.472;2022-10-31T11:33:27;24.70;;;12.30;;
17886;SDS011;9069;52.044;7.472;2022-10-31T11:35:57;20.75;;;11.98;;
17886;SDS011;9069;52.044;7.472;2022-10-31T11:38:29;24.58;;;12.02;;
17886;SDS011;9069;52.044;7.472;2022-10-31T11:43:32;24.42;;;13.15;;
17886;SDS011;9069;52.044;7.472;2022-10-31T11:45:58;25.10;;;13.18;;
17886;SDS011;9069;52.044;7.472;2022-10-31T11:48:26;21.98;;;12.48;;
17886;SDS011;9069;52.044;7.472;2022-10-31T11:50:54;23.23;;;12.70;;
17886;SDS011;9069;52.044;7.472;2022-10-31T11:53:26;22.90;;;12.77;;
17886;SDS011;9069;52.044;7.472;2022-10-31T11:56:03;24.67;;;12.65;;
17886;SDS011;9069;52.044;7.472;2022-10-31T11:58:39;22.85;;;12.88;;
17886;SDS011;9069;52.044;7.472;2022-10-31T12:01:06;25.80;;;13.65;;
17886;SDS011;9069;52.044;7.472;2022-10-31T12:04:09;24.08;;;13.32;;
17886;SDS011;9069;52.044;7.472;2022-10-31T12:06:39;28.35;;;12.73;;
17886;SDS011;9069;52.044;7.472;2022-10-31T12:09:17;23.05;;;13.10;;
17886;SDS011;9069;52.044;7.472;2022-10-31T12:17:38;20.95;;;12.73;;
17886;SDS011;9069;52.044;7.472;2022-10-31T12:20:12;20.60;;;12.23;;
17886;SDS011;9069;52.044;7.472;2022-10-31T12:30:58;20.65;;;11.10;;
17886;SDS011;9069;52.044;7.472;2022-10-31T12:42:16;20.10;;;12.18;;
17886;SDS011;9069;52.044;7.472;2022-10-31T12:50:38;20.65;;;10.65;;
17886;SDS011;9069;52.044;7.472;2022-10-31T12:58:46;17.33;;;10.85;;
17886;SDS011;9069;52.044;7.472;2022-10-31T13:01:18;20.05;;;10.15;;
17886;SDS011;9069;52.044;7.472;2022-10-31T13:06:24;19.73;;;10.07;;
17886;SDS011;9069;52.044;7.472;2022-10-31T13:08:57;19.60;;;10.95;;
17886;SDS011;9069;52.044;7.472;2022-10-31T13:11:35;15.43;;;9.23;;
17886;SDS011;9069;52.044;7.472;2022-10-31T13:14:20;21.50;;;11.32;;
17886;SDS011;9069;52.044;7.472;2022-10-31T13:16:52;21.83;;;9.98;;
17886;SDS011;9069;52.044;7.472;2022-10-31T13:19:25;17.17;;;9.68;;
17886;SDS011;9069;52.044;7.472;2022-10-31T13:21:59;18.30;;;10.35;;
17886;SDS011;9069;52.044;7.472;2022-10-31T13:27:24;17.70;;;10.00;;
17886;SDS011;9069;52.044;7.472;2022-10-31T13:29:58;20.27;;;10.35;;
17886;SDS011;9069;52.044;7.472;2022-10-31T13:32:42;21.10;;;10.35;;
17886;SDS011;9069;52.044;7.472;2022-10-31T13:35:29;19.05;;;10.07;;
17886;SDS011;9069;52.044;7.472;2022-10-31T13:38:22;19.20;;;9.25;;
17886;SDS011;9069;52.044;7.472;2022-10-31T13:44:17;19.45;;;10.15;;
17886;SDS011;9069;52.044;7.472;2022-10-31T13:46:52;21.20;;;10.20;;
17886;SDS011;9069;52.044;7.472;2022-10-31T13:54:45;23.10;;;11.80;;
17886;SDS011;9069;52.044;7.472;2022-10-31T14:00:22;22.50;;;10.90;;
17886;SDS011;9069;52.044;7.472;2022-10-31T14:02:50;21.98;;;11.48;;
17886;SDS011;9069;52.044;7.472;2022-10-31T14:08:02;24.83;;;11.35;;
17886;SDS011;9069;52.044;7.472;2022-10-31T14:10:35;22.25;;;11.60;;
17886;SDS011;9069;52.044;7.472;2022-10-31T14:15:33;20.23;;;10.90;;
17886;SDS011;9069;52.044;7.472;2022-10-31T14:18:19;22.42;;;11.15;;
17886;SDS011;9069;52.044;7.472;2022-10-31T14:20:59;24.63;;;11.98;;
17886;SDS011;9069;52.044;7.472;2022-10-31T14:23:34;25.02;;;12.55;;
17886;SDS011;9069;52.044;7.472;2022-10-31T14:28:58;23.67;;;12.70;;
17886;SDS011;9069;52.044;7.472;2022-10-31T14:31:32;21.30;;;12.07;;
17886;SDS011;9069;52.044;7.472;2022-10-31T14:37:14;27.02;;;12.57;;
17886;SDS011;9069;52.044;7.472;2022-10-31T14:48:32;28.63;;;13.02;;
17886;SDS011;9069;52.044;7.472;2022-10-31T14:51:21;28.05;;;12.73;;
17886;SDS011;9069;52.044;7.472;2022-10-31T14:53:50;28.38;;;13.65;;
17886;SDS011;9069;52.044;7.472;2022-10-31T14:56:24;28.90;;;14.35;;
17886;SDS011;9069;52.044;7.472;2022-10-31T14:59:03;30.80;;;15.40;;
17886;SDS011;9069;52.044;7.472;2022-10-31T15:01:34;24.83;;;13.93;;
17886;SDS011;9069;52.044;7.472;2022-10-31T15:04:13;27.52;;;14.07;;
17886;SDS011;9069;52.044;7.472;2022-10-31T15:06:52;24.35;;;13.10;;
17886;SDS011;9069;52.044;7.472;2022-10-31T15:10:00;28.10;;;14.60;;
17886;SDS011;9069;52.044;7.472;2022-10-31T15:12:35;26.65;;;13.82;;
17886;SDS011;9069;52.044;7.472;2022-10-31T15:15:16;25.13;;;14.60;;
17886;SDS011;9069;52.044;7.472;2022-10-31T15:17:53;25.65;;;13.25;;
17886;SDS011;9069;52.044;7.472;2022-10-31T15:20:27;26.90;;;14.48;;
17886;SDS011;9069;52.044;7.472;2022-10-31T15:22:56;28.38;;;14.80;;
17886;SDS011;9069;52.044;7.472;2022-10-31T15:25:26;30.45;;;14.30;;
17886;SDS011;9069;52.044;7.472;2022-10-31T15:27:58;24.88;;;14.80;;
17886;SDS011;9069;52.044;7.472;2022-10-31T15:30:26;35.03;;;15.85;;
17886;SDS011;9069;52.044;7.472;2022-10-31T15:32:54;29.98;;;14.27;;
17886;SDS011;9069;52.044;7.472;2022-10-31T15:35:25;28.42;;;14.57;;
17886;SDS011;9069;52.044;7.472;2022-10-31T15:37:56;30.50;;;15.63;;
17886;SDS011;9069;52.044;7.472;2022-10-31T15:40:25;32.50;;;15.30;;
17886;SDS011;9069;52.044;7.472;2022-10-31T15:42:55;26.73;;;14.68;;
17886;SDS011;9069;52.044;7.472;2022-10-31T15:45:27;29.10;;;15.40;;
17886;SDS011;9069;52.044;7.472;2022-10-31T15:50:32;25.13;;;14.50;;
17886;SDS011;9069;52.044;7.472;2022-10-31T15:52:59;28.65;;;13.82;;
17886;SDS011;9069;52.044;7.472;2022-10-31T15:55:28;28.60;;;14.90;;
17886;SDS011;9069;52.044;7.472;2022-10-31T15:57:59;28.58;;;14.65;;
17886;SDS011;9069;52.044;7.472;2022-10-31T16:00:31;34.38;;;15.45;;
17886;SDS011;9069;52.044;7.472;2022-10-31T16:03:25;30.25;;;15.57;;
17886;SDS011;9069;52.044;7.472;2022-10-31T16:05:56;31.00;;;14.85;;
17886;SDS011;9069;52.044;7.472;2022-10-31T16:10:58;26.70;;;14.18;;
17886;SDS011;9069;52.044;7.472;2022-10-31T16:13:28;28.63;;;14.40;;
17886;SDS011;9069;52.044;7.472;2022-10-31T16:16:00;30.30;;;14.23;;
17886;SDS011;9069;52.044;7.472;2022-10-31T16:18:50;29.70;;;14.15;;
17886;SDS011;9069;52.044;7.472;2022-10-31T16:21:29;31.63;;;14.57;;
17886;SDS011;9069;52.044;7.472;2022-10-31T16:24:03;22.98;;;13.73;;
17886;SDS011;9069;52.044;7.472;2022-10-31T16:26:39;30.45;;;14.57;;
17886;SDS011;9069;52.044;7.472;2022-10-31T16:29:22;31.05;;;14.52;;
17886;SDS011;9069;52.044;7.472;2022-10-31T16:31:58;26.00;;;14.63;;
17886;SDS011;9069;52.044;7.472;2022-10-31T16:34:24;30.13;;;15.48;;
17886;SDS011;9069;52.044;7.472;2022-10-31T16:36:52;27.88;;;14.07;;
17886;SDS011;9069;52.044;7.472;2022-10-31T16:39:19;30.20;;;14.50;;
17886;SDS011;9069;52.044;7.472;2022-10-31T16:41:48;24.30;;;13.40;;
17886;SDS011;9069;52.044;7.472;2022-10-31T16:47:07;24.52;;;13.32;;
17886;SDS011;9069;52.044;7.472;2022-10-31T16:49:42;22.15;;;12.25;;
17886;SDS011;9069;52.044;7.472;2022-10-31T16:52:09;21.58;;;12.25;;
17886;SDS011;9069;52.044;7.472;2022-10-31T16:54:36;20.98;;;11.07;;
17886;SDS011;9069;52.044;7.472;2022-10-31T16:57:03;25.75;;;12.05;;
17886;SDS011;9069;52.044;7.472;2022-10-31T16:59:31;21.90;;;12.38;;
17886;SDS011;9069;52.044;7.472;2022-10-31T17:02:01;26.33;;;13.20;;
17886;SDS011;9069;52.044;7.472;2022-10-31T17:04:29;28.05;;;12.65;;
17886;SDS011;9069;52.044;7.472;2022-10-31T17:06:56;22.40;;;11.98;;
17886;SDS011;9069;52.044;7.472;2022-10-31T17:09:23;23.08;;;11.23;;
17886;SDS011;9069;52.044;7.472;2022-10-31T17:11:50;24.25;;;11.35;;
17886;SDS011;9069;52.044;7.472;2022-10-31T17:14:17;23.50;;;12.10;;
17886;SDS011;9069;52.044;7.472;2022-10-31T17:16:44;29.58;;;12.55;;
17886;SDS011;9069;52.044;7.472;2022-10-31T17:19:11;21.55;;;11.90;;
17886;SDS011;9069;52.044;7.472;2022-10-31T17:21:38;22.25;;;12.15;;
17886;SDS011;9069;52.044;7.472;2022-10-31T17:24:06;23.08;;;12.63;;